createdAt,value
2023-05-28T00:00:35.033Z,100357.72
2023-05-28T00:03:02.648Z,100353.59
2023-05-28T00:05:29.956Z,100349.19
2023-05-28T00:08:01.719Z,100343.16
2023-05-28T00:10:29.549Z,100347.84
2023-05-28T00:12:57.279Z,100344.00
2023-05-28T00:15:24.594Z,100340.53
2023-05-28T00:17:53.922Z,100338.25
2023-05-28T00:20:21.703Z,100354.16
2023-05-28T00:22:50.067Z,100353.78
2023-05-28T00:25:17.660Z,100347.84
2023-05-28T00:27:44.892Z,100347.78
2023-05-28T00:30:12.515Z,100345.63
2023-05-28T00:32:40.098Z,100343.66
2023-05-28T00:35:07.945Z,100332.81
2023-05-28T00:37:35.396Z,100340.47
2023-05-28T00:40:03.484Z,100326.16
2023-05-28T00:42:30.916Z,100326.62
2023-05-28T00:44:58.150Z,100325.78
2023-05-28T00:47:25.950Z,100324.34
2023-05-28T00:49:56.705Z,100323.34
2023-05-28T00:52:24.020Z,100322.03
2023-05-28T00:54:51.641Z,100315.69
2023-05-28T00:57:22.679Z,100327.31
2023-05-28T00:59:51.795Z,100318.34
2023-05-28T01:02:19.328Z,100312.66
2023-05-28T01:04:46.567Z,100309.97
2023-05-28T01:07:13.883Z,100303.66
2023-05-28T01:09:41.770Z,100308.00
2023-05-28T01:12:09.375Z,100300.00
2023-05-28T01:14:38.770Z,100307.94
2023-05-28T01:17:07.370Z,100311.59
2023-05-28T01:19:35.028Z,100298.75
2023-05-28T01:22:07.273Z,100294.59
2023-05-28T01:24:39.088Z,100296.66
2023-05-28T01:27:06.908Z,100295.50
2023-05-28T01:29:34.622Z,100291.81
2023-05-28T01:32:02.352Z,100294.31
2023-05-28T01:34:30.806Z,100292.56
2023-05-28T01:37:00.220Z,100290.19
2023-05-28T01:39:29.160Z,100297.50
2023-05-28T01:41:57.109Z,100300.41
2023-05-28T01:44:25.148Z,100291.34
2023-05-28T01:46:54.250Z,100297.50
2023-05-28T01:49:22.908Z,100283.56
2023-05-28T01:51:53.295Z,100285.19
2023-05-28T01:54:21.850Z,100281.94
2023-05-28T01:56:49.252Z,100280.13
2023-05-28T01:59:17.471Z,100284.16
2023-05-28T02:01:44.804Z,100291.03
2023-05-28T02:04:12.589Z,100284.22
2023-05-28T02:06:41.890Z,100283.81
2023-05-28T02:09:09.285Z,100280.28
2023-05-28T02:11:36.875Z,100278.44
2023-05-28T02:14:06.052Z,100279.72
2023-05-28T02:16:33.567Z,100274.34
2023-05-28T02:19:04.437Z,100278.38
2023-05-28T02:21:31.884Z,100279.84
2023-05-28T02:23:59.665Z,100279.28
2023-05-28T02:26:26.910Z,100277.44
2023-05-28T02:28:54.126Z,100279.06
2023-05-28T02:31:21.789Z,100281.78
2023-05-28T02:33:49.231Z,100277.31
2023-05-28T02:36:16.797Z,100280.34
2023-05-28T02:38:44.490Z,100283.12
2023-05-28T02:41:11.753Z,100285.44
2023-05-28T02:43:43.401Z,100280.59
2023-05-28T02:46:11.432Z,100289.25
2023-05-28T02:48:39.210Z,100281.34
2023-05-28T02:51:06.994Z,100283.63
2023-05-28T02:53:35.886Z,100282.19
2023-05-28T02:56:03.086Z,100280.97
2023-05-28T02:58:31.736Z,100278.84
2023-05-28T03:00:59.570Z,100279.53
2023-05-28T03:03:27.423Z,100279.28
2023-05-28T03:05:55.393Z,100278.53
2023-05-28T03:08:23.248Z,100276.81
2023-05-28T03:10:50.677Z,100288.06
2023-05-28T03:13:17.940Z,100289.88
2023-05-28T03:15:45.599Z,100283.25
2023-05-28T03:18:13.489Z,100280.38
2023-05-28T03:20:41.021Z,100276.88
2023-05-28T03:23:08.847Z,100282.34
2023-05-28T03:25:39.400Z,100278.19
2023-05-28T03:28:06.942Z,100279.06
2023-05-28T03:30:36.551Z,100285.44
2023-05-28T03:33:04.209Z,100286.03
2023-05-28T03:35:31.505Z,100288.44
2023-05-28T03:37:59.022Z,100280.19
2023-05-28T03:40:26.571Z,100289.22
2023-05-28T03:42:53.854Z,100277.91
2023-05-28T03:45:21.656Z,100284.91
2023-05-28T03:47:49.010Z,100279.53
2023-05-28T03:50:16.709Z,100281.44
2023-05-28T03:52:44.267Z,100284.56
2023-05-28T03:55:11.764Z,100287.87
2023-05-28T03:57:41.104Z,100283.63
2023-05-28T04:00:10.162Z,100292.34
2023-05-28T04:02:43.960Z,100284.47
2023-05-28T04:05:11.981Z,100287.25
2023-05-28T04:07:39.358Z,100290.63
2023-05-28T04:10:08.293Z,100285.88
2023-05-28T04:12:35.994Z,100295.16
2023-05-28T04:15:05.209Z,100293.12
2023-05-28T04:17:32.508Z,100289.47
2023-05-28T04:20:00.055Z,100298.72
2023-05-28T04:22:27.510Z,100289.00
2023-05-28T04:24:56.708Z,100293.16
2023-05-28T04:27:24.672Z,100288.09
2023-05-28T04:29:56.163Z,100285.16
2023-05-28T04:32:24.682Z,100285.00
2023-05-28T04:34:55.920Z,100281.06
2023-05-28T04:37:23.505Z,100285.84
2023-05-28T04:39:50.781Z,100287.31
2023-05-28T04:42:19.398Z,100289.31
2023-05-28T04:44:47.185Z,100289.56
2023-05-28T04:47:15.501Z,100288.88
2023-05-28T04:49:43.186Z,100290.59
2023-05-28T04:52:11.079Z,100288.72
2023-05-28T04:54:38.373Z,100293.84
2023-05-28T04:57:07.198Z,100293.56
2023-05-28T04:59:36.178Z,100293.56
2023-05-28T05:02:05.000Z,100302.56
2023-05-28T05:04:32.290Z,100304.50
2023-05-28T05:06:59.848Z,100302.28
2023-05-28T05:09:28.426Z,100313.72
2023-05-28T05:11:56.425Z,100317.16
2023-05-28T05:14:23.917Z,100318.16
2023-05-28T05:16:51.209Z,100319.38
2023-05-28T05:19:18.614Z,100325.66
2023-05-28T05:21:46.248Z,100327.16
2023-05-28T05:24:13.526Z,100316.34
2023-05-28T05:26:41.245Z,100322.56
2023-05-28T05:29:08.816Z,100317.56
2023-05-28T05:31:36.959Z,100325.72
2023-05-28T05:34:05.458Z,100320.75
2023-05-28T05:36:34.089Z,100326.34
2023-05-28T05:39:01.625Z,100327.53
2023-05-28T05:41:28.818Z,100324.69
2023-05-28T05:43:56.832Z,100322.50
2023-05-28T05:46:24.435Z,100321.38
2023-05-28T05:48:51.725Z,100317.50
2023-05-28T05:51:19.702Z,100314.19
2023-05-28T05:53:47.053Z,100309.09
2023-05-28T05:56:14.424Z,100319.84
2023-05-28T05:58:42.337Z,100314.06
2023-05-28T06:01:10.313Z,100313.09
2023-05-28T06:03:38.072Z,100319.22
2023-05-28T06:06:08.055Z,100325.28
2023-05-28T06:08:36.697Z,100322.22
2023-05-28T06:11:04.396Z,100324.28
2023-05-28T06:13:32.591Z,100331.03
2023-05-28T06:16:00.852Z,100332.28
2023-05-28T06:18:28.414Z,100335.63
2023-05-28T06:20:57.005Z,100333.31
2023-05-28T06:23:24.568Z,100337.59
2023-05-28T06:25:52.666Z,100337.12
2023-05-28T06:28:20.244Z,100322.47
2023-05-28T06:30:47.521Z,100331.97
2023-05-28T06:33:15.131Z,100332.31
2023-05-28T06:35:42.530Z,100336.59
2023-05-28T06:38:09.757Z,100339.41
2023-05-28T06:40:37.435Z,100334.00
2023-05-28T06:43:04.742Z,100347.50
2023-05-28T06:45:34.136Z,100340.09
2023-05-28T06:48:02.777Z,100334.56
2023-05-28T06:50:30.206Z,100337.84
2023-05-28T06:52:57.736Z,100341.38
2023-05-28T06:55:26.206Z,100343.72
2023-05-28T06:57:54.240Z,100331.06
2023-05-28T07:00:25.672Z,100339.19
2023-05-28T07:02:53.438Z,100334.19
2023-05-28T07:05:21.078Z,100333.31
2023-05-28T07:07:48.593Z,100332.50
2023-05-28T07:10:16.661Z,100338.31
2023-05-28T07:12:44.281Z,100328.34
2023-05-28T07:15:11.673Z,100333.47
2023-05-28T07:17:40.083Z,100333.22
2023-05-28T07:20:08.291Z,100341.47
2023-05-28T07:22:37.935Z,100334.09
2023-05-28T07:25:06.144Z,100344.88
2023-05-28T07:27:33.740Z,100342.47
2023-05-28T07:30:01.206Z,100341.06
2023-05-28T07:32:28.814Z,100342.00
2023-05-28T07:34:57.606Z,100344.16
2023-05-28T07:37:25.190Z,100329.66
2023-05-28T07:39:53.434Z,100330.81
2023-05-28T07:42:20.806Z,100332.44
2023-05-28T07:44:53.184Z,100338.06
2023-05-28T07:47:20.882Z,100330.94
2023-05-28T07:49:50.496Z,100321.03
2023-05-28T07:52:20.578Z,100327.84
2023-05-28T07:54:47.951Z,100329.72
2023-05-28T07:57:16.011Z,100323.94
2023-05-28T07:59:44.673Z,100326.13
2023-05-28T08:02:12.342Z,100315.09
2023-05-28T08:04:40.180Z,100330.62
2023-05-28T08:07:07.858Z,100319.31
2023-05-28T08:09:35.249Z,100323.16
2023-05-28T08:12:03.518Z,100313.09
2023-05-28T08:14:31.320Z,100326.84
2023-05-28T08:16:59.569Z,100321.91
2023-05-28T08:19:28.208Z,100320.03
2023-05-28T08:21:56.103Z,100318.25
2023-05-28T08:24:23.532Z,100308.72
2023-05-28T08:26:52.467Z,100303.09
2023-05-28T08:29:21.517Z,100310.38
2023-05-28T08:31:49.804Z,100312.25
2023-05-28T08:37:50.380Z,100299.66
2023-05-28T08:40:19.185Z,100304.84
2023-05-28T08:42:46.570Z,100299.03
2023-05-28T08:45:14.048Z,100314.47
2023-05-28T08:47:44.507Z,100295.25
2023-05-28T08:50:13.495Z,100300.00
2023-05-28T08:52:46.490Z,100299.78
2023-05-28T08:55:14.719Z,100299.19
2023-05-28T08:57:43.606Z,100295.22
2023-05-28T09:00:12.925Z,100292.75
2023-05-28T09:02:43.509Z,100280.22
2023-05-28T09:05:11.057Z,100286.31
2023-05-28T09:11:14.510Z,100285.91
2023-05-28T09:13:47.146Z,100279.44
2023-05-28T09:16:24.697Z,100262.66
2023-05-28T09:19:03.914Z,100271.91
2023-05-28T09:21:33.056Z,100268.22
2023-05-28T09:24:02.137Z,100273.44
2023-05-28T09:26:32.395Z,100276.75
2023-05-28T09:29:00.643Z,100274.69
2023-05-28T09:31:30.490Z,100277.03
2023-05-28T09:33:57.827Z,100274.84
2023-05-28T09:36:25.125Z,100268.72
2023-05-28T09:38:52.727Z,100264.94
2023-05-28T09:41:24.159Z,100261.09
2023-05-28T09:44:00.667Z,100266.34
2023-05-28T09:46:30.619Z,100255.69
2023-05-28T09:48:59.052Z,100258.88
2023-05-28T09:51:30.171Z,100260.06
2023-05-28T09:54:00.087Z,100255.94
2023-05-28T09:56:34.347Z,100252.41
2023-05-28T09:59:04.044Z,100256.69
2023-05-28T10:01:37.391Z,100251.56
2023-05-28T10:04:12.530Z,100247.56
2023-05-28T10:06:41.637Z,100251.72
2023-05-28T10:09:10.688Z,100247.41
2023-05-28T10:11:44.498Z,100240.50
2023-05-28T10:14:12.849Z,100240.91
2023-05-28T10:16:40.595Z,100240.37
2023-05-28T10:19:07.764Z,100237.06
2023-05-28T10:21:36.356Z,100234.13
2023-05-28T10:27:36.641Z,100236.25
2023-05-28T10:33:42.635Z,100218.84
2023-05-28T10:39:42.844Z,100216.25
2023-05-28T10:45:42.237Z,100216.19
2023-05-28T10:48:17.100Z,100214.72
2023-05-28T10:51:12.087Z,100215.00
2023-05-28T10:53:39.830Z,100211.66
2023-05-28T10:59:45.365Z,100206.72
2023-05-28T11:05:44.457Z,100216.03
2023-05-28T11:08:12.664Z,100202.91
2023-05-28T11:10:40.065Z,100194.78
2023-05-28T11:13:08.032Z,100201.31
2023-05-28T11:15:42.233Z,100204.50
2023-05-28T11:18:09.524Z,100201.38
2023-05-28T11:20:37.153Z,100188.28
2023-05-28T11:23:15.336Z,100188.34
2023-05-28T11:25:43.613Z,100174.72
2023-05-28T11:31:42.255Z,100175.19
2023-05-28T11:37:41.897Z,100157.84
2023-05-28T11:40:11.420Z,100157.22
2023-05-28T11:42:40.625Z,100160.94
2023-05-28T11:45:08.988Z,100158.41
2023-05-28T11:47:37.721Z,100147.66
2023-05-28T11:50:23.397Z,100149.44
2023-05-28T11:52:50.962Z,100153.22
2023-05-28T11:55:19.153Z,100141.38
2023-05-28T11:57:56.479Z,100141.38
2023-05-28T12:00:37.591Z,100154.06
2023-05-28T12:03:05.323Z,100148.72
2023-05-28T12:08:40.992Z,100150.53
2023-05-28T12:14:38.817Z,100142.78
2023-05-28T12:17:08.618Z,100135.25
2023-05-28T12:23:13.426Z,100126.31
2023-05-28T12:29:13.660Z,100124.78
2023-05-28T12:31:41.371Z,100132.69
2023-05-28T12:34:08.721Z,100137.56
2023-05-28T12:36:36.179Z,100125.91
2023-05-28T12:39:05.853Z,100122.56
2023-05-28T12:41:33.081Z,100129.81
2023-05-28T12:44:00.398Z,100122.59
2023-05-28T12:46:28.021Z,100119.91
2023-05-28T12:48:55.681Z,100118.03
2023-05-28T12:51:22.908Z,100111.56
2023-05-28T12:53:50.395Z,100122.22
2023-05-28T12:56:19.309Z,100105.97
2023-05-28T12:58:46.729Z,100123.16
2023-05-28T13:01:14.602Z,100110.69
2023-05-28T13:03:42.562Z,100123.38
2023-05-28T13:06:10.134Z,100106.38
2023-05-28T13:08:37.742Z,100112.53
2023-05-28T13:11:05.068Z,100100.94
2023-05-28T13:13:34.990Z,100105.59
2023-05-28T13:16:02.929Z,100102.50
2023-05-28T13:18:30.450Z,100098.56
2023-05-28T13:20:58.171Z,100091.34
2023-05-28T13:23:28.133Z,100093.69
2023-05-28T13:25:55.322Z,100094.53
2023-05-28T13:28:23.470Z,100102.28
2023-05-28T13:30:51.930Z,100097.50
2023-05-28T13:33:19.388Z,100099.28
2023-05-28T13:35:46.914Z,100096.62
2023-05-28T13:38:14.987Z,100088.19
2023-05-28T13:40:43.444Z,100100.97
2023-05-28T13:43:10.811Z,100094.56
2023-05-28T13:45:38.552Z,100082.88
2023-05-28T13:48:08.576Z,100080.00
2023-05-28T13:50:36.234Z,100076.09
2023-05-28T13:53:07.051Z,100076.78
2023-05-28T13:55:36.733Z,100077.78
2023-05-28T13:58:04.173Z,100071.31
2023-05-28T14:00:38.642Z,100083.09
2023-05-28T14:03:07.624Z,100076.59
2023-05-28T14:05:37.769Z,100074.00
2023-05-28T14:08:05.131Z,100070.56
2023-05-28T14:10:32.677Z,100067.72
2023-05-28T14:12:59.917Z,100074.47
2023-05-28T14:15:27.181Z,100064.91
2023-05-28T14:17:54.811Z,100060.03
2023-05-28T14:20:22.206Z,100061.00
2023-05-28T14:22:49.534Z,100055.84
2023-05-28T14:25:17.139Z,100061.31
2023-05-28T14:27:44.471Z,100058.91
2023-05-28T14:30:12.517Z,100058.00
2023-05-28T14:32:40.605Z,100057.28
2023-05-28T14:35:08.537Z,100057.28
2023-05-28T14:37:35.870Z,100046.91
2023-05-28T14:40:05.711Z,100051.06
2023-05-28T14:42:33.308Z,100045.19
2023-05-28T14:45:00.643Z,100050.50
2023-05-28T14:47:28.329Z,100037.00
2023-05-28T14:49:56.056Z,100032.78
2023-05-28T14:52:32.089Z,100039.34
2023-05-28T14:55:00.056Z,100041.75
2023-05-28T14:57:28.281Z,100033.69
2023-05-28T15:00:02.092Z,100037.06
2023-05-28T15:02:32.625Z,100045.16
2023-05-28T15:05:00.149Z,100033.13
2023-05-28T15:07:27.563Z,100034.06
2023-05-28T15:09:55.144Z,100025.94
2023-05-28T15:12:22.662Z,100029.34
2023-05-28T15:14:50.348Z,100028.75
2023-05-28T15:17:19.281Z,100026.66
2023-05-28T15:19:49.836Z,100027.56
2023-05-28T15:22:17.926Z,100028.59
2023-05-28T15:24:47.770Z,100021.25
2023-05-28T15:27:15.197Z,100021.69
2023-05-28T15:29:45.529Z,100014.31
2023-05-28T15:32:13.505Z,100020.63
2023-05-28T15:34:41.002Z,100011.53
2023-05-28T15:37:08.809Z,100020.63
2023-05-28T15:39:41.590Z,100016.28
2023-05-28T15:42:12.033Z,100008.84
2023-05-28T15:44:40.323Z,100009.22
2023-05-28T15:47:07.746Z,100012.91
2023-05-28T15:49:35.020Z,100015.53
2023-05-28T15:52:02.554Z,100018.91
2023-05-28T15:54:30.513Z,100017.84
2023-05-28T15:56:59.186Z,100005.63
2023-05-28T15:59:26.921Z,100014.94
2023-05-28T16:01:58.687Z,100019.72
2023-05-28T16:04:27.433Z,100005.63
2023-05-28T16:06:54.930Z,100009.06
2023-05-28T16:09:23.017Z,100018.50
2023-05-28T16:11:54.577Z,100013.87
2023-05-28T16:14:23.210Z,100016.13
2023-05-28T16:16:52.824Z,100014.16
2023-05-28T16:19:20.333Z,100016.56
2023-05-28T16:21:48.486Z,100014.31
2023-05-28T16:24:18.167Z,100017.78
2023-05-28T16:26:49.378Z,100027.94
2023-05-28T16:29:18.995Z,100031.06
2023-05-28T16:31:46.527Z,100019.75
2023-05-28T16:34:15.852Z,100024.34
2023-05-28T16:36:44.352Z,100024.84
2023-05-28T16:39:11.790Z,100020.47
2023-05-28T16:41:39.149Z,100028.62
2023-05-28T16:44:07.021Z,100022.53
2023-05-28T16:46:34.896Z,100024.72
2023-05-28T16:49:02.500Z,100025.72
2023-05-28T16:51:30.691Z,100031.44
2023-05-28T16:53:58.921Z,100032.38
2023-05-28T16:56:30.640Z,100034.84
2023-05-28T16:58:58.233Z,100021.56
2023-05-28T17:01:25.680Z,100026.16
2023-05-28T17:03:53.200Z,100032.31
2023-05-28T17:06:22.109Z,100027.75
2023-05-28T17:08:49.319Z,100022.50
2023-05-28T17:11:16.921Z,100020.94
2023-05-28T17:13:44.424Z,100028.00
2023-05-28T17:16:12.178Z,100021.81
2023-05-28T17:18:42.205Z,100030.34
2023-05-28T17:21:09.872Z,100031.41
2023-05-28T17:23:37.419Z,100029.00
2023-05-28T17:26:04.876Z,100028.50
2023-05-28T17:28:32.524Z,100029.31
2023-05-28T17:31:00.046Z,100034.75
2023-05-28T17:33:27.954Z,100027.56
2023-05-28T17:35:55.815Z,100035.62
2023-05-28T17:38:23.197Z,100030.94
2023-05-28T17:40:51.298Z,100027.66
2023-05-28T17:43:19.100Z,100034.13
2023-05-28T17:46:08.662Z,100039.53
2023-05-28T17:48:57.579Z,100034.56
2023-05-28T17:51:34.278Z,100037.88
2023-05-28T17:54:01.994Z,100032.50
2023-05-28T17:56:33.822Z,100031.09
2023-05-28T17:59:02.252Z,100033.34
2023-05-28T18:01:31.159Z,100041.84
2023-05-28T18:03:58.891Z,100040.19
2023-05-28T18:06:31.351Z,100046.22
2023-05-28T18:08:59.134Z,100035.47
2023-05-28T18:15:03.986Z,100044.94
2023-05-28T18:17:32.763Z,100041.19
2023-05-28T18:20:00.469Z,100034.59
2023-05-28T18:22:27.904Z,100048.41
2023-05-28T18:24:55.554Z,100041.34
2023-05-28T18:30:53.365Z,100037.31
2023-05-28T18:33:21.392Z,100041.94
2023-05-28T18:39:21.617Z,100044.34
2023-05-28T18:41:50.129Z,100041.75
2023-05-28T18:47:52.006Z,100041.59
2023-05-28T18:53:49.870Z,100039.91
2023-05-28T18:56:17.498Z,100041.19
2023-05-28T18:58:47.573Z,100044.63
2023-05-28T19:04:44.695Z,100058.19
2023-05-28T19:10:42.891Z,100061.28
2023-05-28T19:13:10.444Z,100067.34
2023-05-28T19:15:37.837Z,100066.59
2023-05-28T19:18:05.262Z,100068.06
2023-05-28T19:20:32.985Z,100071.50
2023-05-28T19:23:00.549Z,100074.16
2023-05-28T19:25:27.763Z,100065.03
2023-05-28T19:31:27.931Z,100074.19
2023-05-28T19:33:55.409Z,100085.09
2023-05-28T19:36:22.681Z,100085.91
2023-05-28T19:38:49.830Z,100082.81
2023-05-28T19:41:18.033Z,100090.53
2023-05-28T19:47:15.648Z,100083.59
2023-05-28T19:49:43.425Z,100096.06
2023-05-28T19:55:41.275Z,100102.44
2023-05-28T19:58:23.681Z,100099.25
2023-05-28T20:00:50.941Z,100097.78
2023-05-28T20:10:04.490Z,100103.34
2023-05-28T20:12:32.141Z,100106.44
2023-05-28T20:14:59.491Z,100099.62
2023-05-28T20:17:26.757Z,100103.34
2023-05-28T20:19:54.381Z,100109.16
2023-05-28T20:22:21.877Z,100108.75
2023-05-28T20:24:49.733Z,100110.69
2023-05-28T20:27:17.374Z,100110.94
2023-05-28T20:29:44.812Z,100113.47
2023-05-28T20:32:12.123Z,100102.81
2023-05-28T20:34:39.696Z,100098.16
2023-05-28T20:37:09.815Z,100104.19
2023-05-28T20:39:38.647Z,100105.41
2023-05-28T20:42:06.470Z,100100.09
2023-05-28T20:44:36.869Z,100101.16
2023-05-28T20:47:05.792Z,100085.69
2023-05-28T20:49:33.480Z,100082.00
2023-05-28T20:52:00.877Z,100092.84
2023-05-28T20:54:28.197Z,100091.53
2023-05-28T20:56:55.991Z,100095.34
2023-05-28T20:59:25.770Z,100098.66
2023-05-28T21:01:53.801Z,100096.53
2023-05-28T21:04:21.447Z,100092.53
2023-05-28T21:06:48.796Z,100103.84
2023-05-28T21:09:16.049Z,100102.34
2023-05-28T21:11:43.586Z,100114.53
2023-05-28T21:14:10.788Z,100109.84
2023-05-28T21:16:38.466Z,100101.00
2023-05-28T21:19:07.937Z,100108.34
2023-05-28T21:21:35.249Z,100117.69
2023-05-28T21:24:02.446Z,100106.53
2023-05-28T21:26:29.981Z,100110.34
2023-05-28T21:28:59.238Z,100107.53
2023-05-28T21:31:28.753Z,100109.50
2023-05-28T21:33:56.379Z,100115.84
2023-05-28T21:36:23.588Z,100114.84
2023-05-28T21:38:50.988Z,100114.81
2023-05-28T21:41:18.421Z,100111.50
2023-05-28T21:43:45.786Z,100109.84
2023-05-28T21:46:13.103Z,100111.50
2023-05-28T21:48:40.842Z,100109.19
2023-05-28T21:51:08.150Z,100104.34
2023-05-28T21:53:35.370Z,100100.00
2023-05-28T21:56:02.997Z,100099.19
2023-05-28T21:58:30.259Z,100105.81
2023-05-28T22:00:57.587Z,100096.47
2023-05-28T22:06:57.433Z,100101.66
2023-05-28T22:09:25.188Z,100094.16
2023-05-28T22:11:52.418Z,100098.97
2023-05-28T22:14:21.031Z,100089.97
2023-05-28T22:16:49.928Z,100094.00
2023-05-28T22:19:18.385Z,100093.81
2023-05-28T22:21:46.140Z,100091.94
2023-05-28T22:24:13.775Z,100088.09
2023-05-28T22:26:41.414Z,100088.91
2023-05-28T22:29:09.140Z,100099.03
2023-05-28T22:31:36.656Z,100095.34
2023-05-28T22:34:04.121Z,100092.81
2023-05-28T22:36:31.800Z,100095.44
2023-05-28T22:38:59.994Z,100091.31
2023-05-28T22:41:27.346Z,100088.19
2023-05-28T22:43:54.644Z,100093.72
2023-05-28T22:46:22.146Z,100092.03
2023-05-28T22:48:50.204Z,100088.66
2023-05-28T22:51:17.767Z,100090.84
2023-05-28T22:53:45.673Z,100088.69
2023-05-28T22:56:13.752Z,100094.66
2023-05-28T22:58:42.101Z,100101.63
2023-05-28T23:01:10.607Z,100095.56
2023-05-28T23:03:39.008Z,100096.22
2023-05-28T23:06:07.620Z,100100.91
2023-05-28T23:08:35.138Z,100108.84
2023-05-28T23:11:02.322Z,100103.69
2023-05-28T23:13:29.480Z,100103.12
2023-05-28T23:15:56.997Z,100105.75
2023-05-28T23:18:24.943Z,100096.16
2023-05-28T23:20:52.789Z,100094.87
2023-05-28T23:23:20.616Z,100089.22
2023-05-28T23:25:47.821Z,100091.53
2023-05-28T23:28:15.005Z,100081.81
2023-05-28T23:30:42.748Z,100087.47
2023-05-28T23:33:10.215Z,100083.53
2023-05-28T23:35:37.516Z,100096.81
2023-05-28T23:38:05.033Z,100081.31
2023-05-28T23:40:32.458Z,100088.00
2023-05-28T23:43:00.774Z,100086.00
2023-05-28T23:45:28.371Z,100084.06
2023-05-28T23:47:55.870Z,100085.25
2023-05-28T23:50:23.311Z,100089.88
2023-05-28T23:52:50.864Z,100090.69
2023-05-28T23:55:18.061Z,100075.91
2023-05-28T23:57:45.422Z,100087.22
